Time;durP1;ratioP1;P1;durP2;ratioP2;P2;SDS_P1;SDS_P2;PMS_P1;PMS_P2;Temp;Humidity;BMP_temperature;BMP_pressure;BME280_temperature;BME280_humidity;BME280_pressure;Samples;Min_cycle;Max_cycle;Signal;HPM_P1;HPM_P2
2021/07/07 00:01:34;;;;;;;0.40;0.20;;;14.70;99.90;;;;;;5103466;28;20392;-82
2021/07/07 00:04:00;;;;;;;0.40;0.30;;;14.80;99.90;;;;;;5112648;28;20472;-82
2021/07/07 00:06:26;;;;;;;0.40;0.20;;;14.70;99.90;;;;;;5113249;28;20360;-81
2021/07/07 00:08:52;;;;;;;0.40;0.20;;;14.80;99.90;;;;;;5113085;28;20429;-83
2021/07/07 00:11:17;;;;;;;0.40;0.30;;;14.80;99.90;;;;;;5108164;28;20397;-82
2021/07/07 00:13:44;;;;;;;0.40;0.28;;;14.80;99.90;;;;;;5092976;28;20384;-82
2021/07/07 00:16:10;;;;;;;0.40;0.20;;;14.80;99.90;;;;;;5107992;28;20703;-82
2021/07/07 00:18:35;;;;;;;0.40;0.30;;;14.80;99.90;;;;;;5090495;28;20754;-82
2021/07/07 00:21:02;;;;;;;0.40;0.20;;;14.80;99.90;;;;;;5092003;28;20390;-82
2021/07/07 00:23:30;;;;;;;0.40;0.20;;;14.70;99.90;;;;;;5097312;28;20789;-82
2021/07/07 00:25:56;;;;;;;0.40;0.20;;;14.80;99.90;;;;;;5111593;28;20411;-83
2021/07/07 00:28:23;;;;;;;0.40;0.20;;;14.90;99.90;;;;;;5111929;28;20416;-81
2021/07/07 00:30:50;;;;;;;0.40;0.20;;;15.00;99.90;;;;;;5094430;28;20424;-82
2021/07/07 00:33:17;;;;;;;0.40;0.20;;;14.80;99.90;;;;;;5111562;28;20388;-82
2021/07/07 00:35:43;;;;;;;0.40;0.20;;;14.80;99.90;;;;;;5112426;28;20493;-82
2021/07/07 00:38:09;;;;;;;0.40;0.30;;;14.80;99.90;;;;;;5102491;28;20389;-82
2021/07/07 00:40:36;;;;;;;0.40;0.20;;;14.90;99.90;;;;;;5092334;28;20873;-83
2021/07/07 00:43:02;;;;;;;0.40;0.20;;;15.00;99.90;;;;;;5111705;28;20702;-82
2021/07/07 00:45:27;;;;;;;0.40;0.20;;;14.90;99.90;;;;;;5097532;28;20395;-82
2021/07/07 00:47:53;;;;;;;0.40;0.20;;;15.00;99.90;;;;;;5099842;28;20408;-85
2021/07/07 00:50:19;;;;;;;0.40;0.20;;;15.00;99.90;;;;;;5093670;28;20418;-82
2021/07/07 00:52:45;;;;;;;0.40;0.20;;;14.90;99.90;;;;;;5092781;28;20751;-81
2021/07/07 00:55:13;;;;;;;0.40;0.20;;;15.00;99.90;;;;;;5094959;28;20412;-82
2021/07/07 00:57:46;;;;;;;0.40;0.20;;;14.90;99.90;;;;;;5112355;28;20419;-81
2021/07/07 01:00:15;;;;;;;0.40;0.20;;;14.80;99.90;;;;;;5098188;28;20394;-82
2021/07/07 01:02:43;;;;;;;0.40;0.20;;;15.00;99.90;;;;;;5092895;28;20388;-81
2021/07/07 01:05:11;;;;;;;0.40;0.30;;;14.90;99.90;;;;;;5111021;28;20423;-81
2021/07/07 01:07:37;;;;;;;0.40;0.30;;;15.00;99.90;;;;;;5079766;28;20393;-81
2021/07/07 01:10:08;;;;;;;0.40;0.30;;;15.00;99.90;;;;;;5080714;28;20392;-81
2021/07/07 01:12:34;;;;;;;0.40;0.20;;;15.10;99.90;;;;;;5111743;28;20428;-82
2021/07/07 01:15:11;;;;;;;0.40;0.20;;;14.70;99.90;;;;;;5090517;28;20878;-81
2021/07/07 01:17:37;;;;;;;0.40;0.20;;;15.00;99.90;;;;;;5091148;28;20409;-82
2021/07/07 01:20:23;;;;;;;0.40;0.30;;;15.00;99.90;;;;;;5090426;28;20382;-82
2021/07/07 01:22:49;;;;;;;0.40;0.20;;;15.10;99.90;;;;;;5091678;28;20846;-81
2021/07/07 01:25:16;;;;;;;0.40;0.20;;;15.10;99.90;;;;;;5090729;28;20394;-81
2021/07/07 01:27:43;;;;;;;0.40;0.20;;;15.20;99.90;;;;;;5102551;28;20495;-81
2021/07/07 01:30:15;;;;;;;0.40;0.20;;;15.20;99.90;;;;;;5111416;28;20364;-82
2021/07/07 01:32:42;;;;;;;0.40;0.20;;;15.10;99.90;;;;;;5111897;28;20498;-81
2021/07/07 01:35:09;;;;;;;0.40;0.20;;;15.10;99.90;;;;;;5110218;28;20396;-82
2021/07/07 01:37:34;;;;;;;0.40;0.20;;;15.20;99.90;;;;;;5091586;28;20383;-81
2021/07/07 01:40:00;;;;;;;0.40;0.20;;;15.20;99.90;;;;;;5099481;28;20388;-82
2021/07/07 01:42:26;;;;;;;0.40;0.20;;;15.20;99.90;;;;;;5109898;28;20471;-82
2021/07/07 01:44:51;;;;;;;0.40;0.20;;;15.10;99.90;;;;;;5090912;28;20477;-81
2021/07/07 01:47:17;;;;;;;0.40;0.20;;;15.20;99.90;;;;;;5105609;28;20460;-82
2021/07/07 01:49:43;;;;;;;0.40;0.20;;;15.00;99.90;;;;;;5110582;28;20481;-82
2021/07/07 01:52:08;;;;;;;0.40;0.20;;;15.30;99.90;;;;;;5082099;28;20703;-82
2021/07/07 01:54:34;;;;;;;0.40;0.22;;;15.20;99.90;;;;;;5091047;28;20421;-81
2021/07/07 01:56:59;;;;;;;0.40;0.20;;;15.20;99.90;;;;;;5090575;28;20382;-82
2021/07/07 01:59:25;;;;;;;0.40;0.20;;;15.10;99.90;;;;;;5091041;28;20842;-82
2021/07/07 02:01:51;;;;;;;0.40;0.20;;;15.20;99.90;;;;;;5108803;28;20388;-81
2021/07/07 02:04:17;;;;;;;0.40;0.20;;;15.20;99.90;;;;;;5085025;28;20768;-82
2021/07/07 02:06:43;;;;;;;0.40;0.20;;;15.60;99.90;;;;;;5091084;28;20406;-83
2021/07/07 02:09:08;;;;;;;0.40;0.30;;;15.20;99.90;;;;;;5108566;28;20399;-81
2021/07/07 02:11:35;;;;;;;0.40;0.20;;;15.20;99.90;;;;;;5105079;28;20390;-81
2021/07/07 02:14:01;;;;;;;0.40;0.20;;;15.20;99.90;;;;;;5089806;28;20414;-85
2021/07/07 02:16:27;;;;;;;0.40;0.20;;;15.20;99.90;;;;;;5106493;28;20404;-82
2021/07/07 02:18:53;;;;;;;0.40;0.20;;;15.20;99.90;;;;;;5103731;28;20386;-81
2021/07/07 02:21:19;;;;;;;0.40;0.20;;;15.20;99.90;;;;;;5092350;28;20378;-82
2021/07/07 02:23:44;;;;;;;0.40;0.30;;;15.30;99.90;;;;;;5092620;28;20434;-81
2021/07/07 02:26:10;;;;;;;0.40;0.20;;;15.30;99.90;;;;;;5079716;28;20457;-81
2021/07/07 02:28:36;;;;;;;0.40;0.20;;;15.30;99.90;;;;;;5108454;28;20483;-81
2021/07/07 02:31:02;;;;;;;0.40;0.20;;;15.40;99.90;;;;;;5090315;28;20465;-82
2021/07/07 02:33:28;;;;;;;0.40;0.20;;;15.30;99.90;;;;;;5090846;28;20409;-81
2021/07/07 02:35:53;;;;;;;0.40;0.20;;;15.20;99.90;;;;;;5090668;28;20748;-82
2021/07/07 02:38:21;;;;;;;0.40;0.30;;;15.20;99.90;;;;;;5089905;28;20381;-82
2021/07/07 02:40:50;;;;;;;0.40;0.20;;;15.20;99.90;;;;;;5090946;28;20382;-83
2021/07/07 02:43:16;;;;;;;0.40;0.20;;;15.20;99.90;;;;;;5095817;28;20404;-82
2021/07/07 02:45:43;;;;;;;0.40;0.20;;;15.20;99.90;;;;;;5092765;28;20480;-82
2021/07/07 02:48:11;;;;;;;0.40;0.30;;;15.30;99.90;;;;;;5074095;28;20836;-83
2021/07/07 02:50:38;;;;;;;0.40;0.20;;;15.20;99.90;;;;;;5097051;28;20404;-81
2021/07/07 02:53:07;;;;;;;0.40;0.20;;;15.30;99.90;;;;;;5074536;28;20397;-82
2021/07/07 02:55:33;;;;;;;0.40;0.20;;;15.20;99.90;;;;;;5109063;28;20416;-82
2021/07/07 02:58:01;;;;;;;0.40;0.20;;;15.30;99.90;;;;;;5112857;28;20388;-86
2021/07/07 03:00:35;;;;;;;0.40;0.30;;;15.30;99.90;;;;;;5114633;28;20456;-81
2021/07/07 03:03:25;;;;;;;0.40;0.20;;;15.20;99.90;;;;;;5095030;28;20473;-83
2021/07/07 03:05:56;;;;;;;0.40;0.30;;;15.30;99.90;;;;;;5084746;28;20407;-81
2021/07/07 03:08:24;;;;;;;0.40;0.30;;;15.30;99.90;;;;;;5111828;28;20886;-81
2021/07/07 03:10:51;;;;;;;0.40;0.20;;;15.40;99.90;;;;;;5094389;28;20390;-81
2021/07/07 03:13:18;;;;;;;0.40;0.20;;;15.30;99.90;;;;;;5102992;28;20943;-82
2021/07/07 03:15:44;;;;;;;0.40;0.20;;;15.30;99.90;;;;;;5091252;28;20886;-81
2021/07/07 03:18:11;;;;;;;0.40;0.30;;;15.40;99.90;;;;;;5093194;28;20423;-82
2021/07/07 03:20:38;;;;;;;0.40;0.30;;;15.30;99.90;;;;;;5110564;28;20384;-81
2021/07/07 03:23:05;;;;;;;0.40;0.20;;;15.40;99.90;;;;;;5113754;28;20414;-82
2021/07/07 03:25:31;;;;;;;0.40;0.30;;;15.20;99.90;;;;;;5114147;28;20748;-81
2021/07/07 03:27:57;;;;;;;0.40;0.20;;;15.40;99.90;;;;;;5095598;28;20464;-81
2021/07/07 03:30:26;;;;;;;0.40;0.20;;;15.30;99.90;;;;;;5094281;28;21052;-81
2021/07/07 03:32:57;;;;;;;0.40;0.20;;;15.40;99.90;;;;;;5095510;28;20403;-81
2021/07/07 03:35:23;;;;;;;0.40;0.20;;;15.30;99.90;;;;;;5093103;28;20414;-81
2021/07/07 03:37:49;;;;;;;0.40;0.20;;;15.40;99.90;;;;;;5100289;28;20389;-81
2021/07/07 03:40:16;;;;;;;0.40;0.30;;;15.30;99.90;;;;;;5113247;28;20422;-81
2021/07/07 03:42:41;;;;;;;0.40;0.20;;;15.20;99.90;;;;;;5095982;28;20427;-81
2021/07/07 03:45:12;;;;;;;0.40;0.20;;;15.30;99.90;;;;;;5091779;28;20415;-82
2021/07/07 03:47:38;;;;;;;0.40;0.20;;;15.20;99.90;;;;;;5113092;28;20384;-81
2021/07/07 03:50:06;;;;;;;0.40;0.20;;;15.30;99.90;;;;;;5113260;28;20687;-84
2021/07/07 03:52:32;;;;;;;0.40;0.20;;;15.20;99.90;;;;;;5100111;28;20464;-81
2021/07/07 03:54:58;;;;;;;0.40;0.20;;;15.20;99.90;;;;;;5108705;28;20414;-81
2021/07/07 03:57:24;;;;;;;0.40;0.20;;;15.20;99.90;;;;;;5111966;28;20423;-82
2021/07/07 03:59:50;;;;;;;0.40;0.30;;;15.20;99.90;;;;;;5113474;28;20408;-81
2021/07/07 04:02:15;;;;;;;0.40;0.20;;;15.10;99.90;;;;;;5113145;28;20903;-82
2021/07/07 04:04:43;;;;;;;0.40;0.30;;;15.20;99.90;;;;;;5094831;28;20392;-81
2021/07/07 04:07:09;;;;;;;0.40;0.20;;;15.20;99.90;;;;;;5112892;28;20377;-82
2021/07/07 04:09:34;;;;;;;0.40;0.30;;;15.20;99.90;;;;;;5113394;28;20400;-81
2021/07/07 04:12:01;;;;;;;0.40;0.30;;;15.30;99.90;;;;;;5112404;28;20452;-82
2021/07/07 04:14:27;;;;;;;0.40;0.40;;;15.30;99.90;;;;;;5112633;28;20978;-82
2021/07/07 04:16:58;;;;;;;0.40;0.20;;;15.30;99.90;;;;;;5112536;28;20529;-82
2021/07/07 04:19:28;;;;;;;0.40;0.20;;;15.20;99.90;;;;;;5108880;28;20382;-82
2021/07/07 04:21:55;;;;;;;0.40;0.20;;;15.30;99.90;;;;;;5075127;28;20933;-82
2021/07/07 04:24:21;;;;;;;0.40;0.20;;;15.30;99.90;;;;;;5111717;28;20543;-81
2021/07/07 04:26:48;;;;;;;0.40;0.20;;;15.30;99.90;;;;;;5102149;28;20874;-82
2021/07/07 04:29:14;;;;;;;0.40;0.20;;;15.30;99.90;;;;;;5092629;28;20378;-83
2021/07/07 04:31:40;;;;;;;0.40;0.20;;;15.30;99.90;;;;;;5112031;28;20728;-83
2021/07/07 04:34:06;;;;;;;0.40;0.20;;;15.30;99.90;;;;;;5103979;28;20410;-86
2021/07/07 04:36:33;;;;;;;0.40;0.20;;;15.30;99.90;;;;;;5093340;28;20379;-82
2021/07/07 04:38:59;;;;;;;0.40;0.20;;;15.30;99.90;;;;;;5092733;28;20803;-82
2021/07/07 04:41:25;;;;;;;0.40;0.30;;;15.20;99.90;;;;;;5099596;28;20461;-82
2021/07/07 04:43:50;;;;;;;0.40;0.20;;;15.20;99.90;;;;;;5094665;28;20453;-82
2021/07/07 04:46:17;;;;;;;0.40;0.30;;;15.20;99.90;;;;;;5095852;28;20402;-82
2021/07/07 04:48:46;;;;;;;0.40;0.20;;;15.10;99.90;;;;;;5100460;28;20389;-82
2021/07/07 04:51:13;;;;;;;0.40;0.20;;;15.30;99.90;;;;;;5110624;28;20412;-82
2021/07/07 04:53:39;;;;;;;0.40;0.20;;;15.10;99.90;;;;;;5111775;28;20396;-81
2021/07/07 04:56:05;;;;;;;0.40;0.20;;;15.10;99.90;;;;;;5080505;28;20897;-81
2021/07/07 04:58:31;;;;;;;0.40;0.20;;;15.10;99.90;;;;;;5093659;28;20382;-81
2021/07/07 05:00:56;;;;;;;0.40;0.30;;;15.10;99.90;;;;;;5094885;28;20380;-81
2021/07/07 05:03:22;;;;;;;0.40;0.20;;;15.10;99.90;;;;;;5080901;28;20461;-80
2021/07/07 05:05:51;;;;;;;0.40;0.20;;;15.30;99.90;;;;;;5099146;28;20393;-80
2021/07/07 05:08:19;;;;;;;0.40;0.20;;;15.20;99.90;;;;;;5110280;28;20844;-80
2021/07/07 05:10:48;;;;;;;0.40;0.20;;;15.30;99.90;;;;;;5092413;28;20736;-81
2021/07/07 05:13:17;;;;;;;0.40;0.20;;;15.30;99.90;;;;;;5107151;28;20878;-81
2021/07/07 05:15:42;;;;;;;0.40;0.20;;;15.30;99.90;;;;;;5111790;28;20412;-80
2021/07/07 05:18:10;;;;;;;0.40;0.22;;;15.30;99.90;;;;;;5093611;28;20449;-83
2021/07/07 05:20:39;;;;;;;0.40;0.30;;;15.30;99.90;;;;;;5111972;28;20395;-82
2021/07/07 05:23:07;;;;;;;0.40;0.20;;;15.40;99.90;;;;;;5110155;28;20380;-82
2021/07/07 05:25:35;;;;;;;0.40;0.30;;;15.30;99.90;;;;;;5096774;28;20413;-83
2021/07/07 05:28:03;;;;;;;0.40;0.30;;;15.40;99.90;;;;;;5095136;28;20836;-83
2021/07/07 05:30:30;;;;;;;0.40;0.30;;;15.40;99.90;;;;;;5083450;28;20469;-83
2021/07/07 05:32:57;;;;;;;0.40;0.20;;;15.40;99.90;;;;;;5101161;28;20677;-82
2021/07/07 05:35:23;;;;;;;0.40;0.20;;;15.50;99.90;;;;;;5091936;28;20401;-83
2021/07/07 05:37:48;;;;;;;0.40;0.20;;;15.50;99.90;;;;;;5073252;28;20812;-83
2021/07/07 05:40:18;;;;;;;0.40;0.20;;;15.50;99.90;;;;;;5090838;28;20441;-83
2021/07/07 05:42:50;;;;;;;0.40;0.20;;;15.60;99.90;;;;;;5099836;28;20425;-82
2021/07/07 05:45:17;;;;;;;0.40;0.30;;;15.00;99.90;;;;;;5072246;28;20418;-83
2021/07/07 05:47:42;;;;;;;0.40;0.20;;;15.50;99.90;;;;;;5110610;28;20875;-82
2021/07/07 05:50:08;;;;;;;0.40;0.20;;;15.60;99.90;;;;;;5093380;28;20437;-82
2021/07/07 05:52:34;;;;;;;0.40;0.30;;;15.60;99.90;;;;;;5092306;28;20385;-82
2021/07/07 05:54:59;;;;;;;0.40;0.20;;;15.60;99.90;;;;;;5093212;28;20404;-82
2021/07/07 05:57:37;;;;;;;0.40;0.30;;;15.70;99.90;;;;;;5110844;28;20380;-82
2021/07/07 06:00:07;;;;;;;0.40;0.20;;;15.60;99.90;;;;;;5111856;28;20458;-81
2021/07/07 06:02:33;;;;;;;0.40;0.20;;;15.70;99.90;;;;;;5104164;28;21091;-81
2021/07/07 06:04:59;;;;;;;0.40;0.20;;;15.70;99.90;;;;;;5091402;28;20485;-81
2021/07/07 06:07:24;;;;;;;0.40;0.20;;;15.80;99.90;;;;;;5106752;28;20459;-81
2021/07/07 06:09:50;;;;;;;0.40;0.30;;;15.80;99.90;;;;;;5111148;28;20368;-82
2021/07/07 06:12:15;;;;;;;0.40;0.20;;;15.80;99.90;;;;;;5110455;28;20372;-83
2021/07/07 06:14:41;;;;;;;0.40;0.30;;;15.80;99.90;;;;;;5111141;28;20445;-82
2021/07/07 06:17:07;;;;;;;0.40;0.28;;;15.90;99.90;;;;;;5111268;28;20415;-82
2021/07/07 06:19:32;;;;;;;0.40;0.20;;;15.40;99.90;;;;;;5110055;28;20416;-82
2021/07/07 06:22:00;;;;;;;0.40;0.20;;;15.80;99.90;;;;;;5111468;28;20380;-82
2021/07/07 06:24:27;;;;;;;0.40;0.20;;;15.90;99.90;;;;;;5097769;28;20412;-84
2021/07/07 06:26:52;;;;;;;0.40;0.30;;;16.00;99.90;;;;;;5090630;28;20406;-84
2021/07/07 06:29:18;;;;;;;0.40;0.20;;;16.10;99.90;;;;;;5072151;28;20471;-83
2021/07/07 06:31:45;;;;;;;0.40;0.20;;;16.00;99.90;;;;;;5073796;28;20868;-83
2021/07/07 06:34:11;;;;;;;0.40;0.30;;;16.10;99.90;;;;;;5101089;28;20404;-81
2021/07/07 06:36:37;;;;;;;0.40;0.30;;;16.00;99.90;;;;;;5114221;28;20380;-83
2021/07/07 06:39:03;;;;;;;0.40;0.30;;;16.00;99.90;;;;;;5096332;28;20443;-83
2021/07/07 06:41:29;;;;;;;0.40;0.20;;;16.00;99.90;;;;;;5105577;28;20396;-82
2021/07/07 06:43:54;;;;;;;0.40;0.20;;;16.00;99.90;;;;;;5111904;28;20368;-82
2021/07/07 06:46:20;;;;;;;0.40;0.20;;;16.10;99.90;;;;;;5093357;28;20396;-83
2021/07/07 06:48:45;;;;;;;0.40;0.20;;;16.20;99.90;;;;;;5105122;28;20385;-83
2021/07/07 06:51:11;;;;;;;0.40;0.20;;;16.10;99.90;;;;;;5112655;28;20489;-82
2021/07/07 06:53:37;;;;;;;0.40;0.20;;;16.20;99.90;;;;;;5112431;28;21182;-82
2021/07/07 06:56:03;;;;;;;0.40;0.30;;;16.30;99.90;;;;;;5114377;28;20872;-82
2021/07/07 06:58:28;;;;;;;0.40;0.30;;;16.30;99.90;;;;;;5112370;28;20867;-82
2021/07/07 07:00:55;;;;;;;0.40;0.20;;;16.30;99.90;;;;;;5094413;28;20377;-82
2021/07/07 07:03:20;;;;;;;0.40;0.20;;;16.10;99.90;;;;;;5075549;28;20417;-82
2021/07/07 07:05:46;;;;;;;0.40;0.20;;;16.10;99.90;;;;;;5094640;28;20429;-82
2021/07/07 07:08:13;;;;;;;0.40;0.28;;;16.20;99.90;;;;;;5094393;28;20715;-82
2021/07/07 07:10:39;;;;;;;0.40;0.20;;;16.20;99.90;;;;;;5110759;28;20384;-82
2021/07/07 07:13:06;;;;;;;0.40;0.22;;;16.30;99.90;;;;;;5105314;28;20386;-81
2021/07/07 07:15:33;;;;;;;0.40;0.30;;;16.40;99.90;;;;;;5093447;28;20739;-81
2021/07/07 07:17:58;;;;;;;0.40;0.20;;;16.50;99.90;;;;;;5094326;28;20382;-81
2021/07/07 07:20:27;;;;;;;0.40;0.20;;;16.40;99.90;;;;;;5103626;28;20388;-81
2021/07/07 07:22:53;;;;;;;0.40;0.20;;;16.50;99.90;;;;;;5108619;28;20392;-81
2021/07/07 07:25:19;;;;;;;0.40;0.20;;;16.50;99.90;;;;;;5074878;28;20412;-80
2021/07/07 07:27:44;;;;;;;0.40;0.20;;;16.60;99.90;;;;;;5108905;28;20849;-81
2021/07/07 07:30:11;;;;;;;0.40;0.30;;;16.70;99.90;;;;;;5102348;28;20894;-81
2021/07/07 07:32:37;;;;;;;0.40;0.30;;;16.80;99.90;;;;;;5091987;28;20523;-80
2021/07/07 07:35:03;;;;;;;0.40;0.30;;;16.70;99.90;;;;;;5112089;28;20890;-80
2021/07/07 07:37:38;;;;;;;0.40;0.20;;;16.70;99.90;;;;;;5099334;28;20414;-81
2021/07/07 07:40:10;;;;;;;0.40;0.20;;;16.80;99.90;;;;;;5096739;28;20384;-81
2021/07/07 07:42:41;;;;;;;0.40;0.20;;;16.70;99.90;;;;;;5111565;28;20377;-81
2021/07/07 07:45:08;;;;;;;0.40;0.20;;;16.90;99.90;;;;;;5093942;28;20452;-81
2021/07/07 07:47:34;;;;;;;0.40;0.20;;;17.00;99.90;;;;;;5103884;28;20487;-81
2021/07/07 07:50:00;;;;;;;0.40;0.20;;;17.20;99.90;;;;;;5107902;28;20469;-82
2021/07/07 07:52:25;;;;;;;0.40;0.20;;;17.10;99.90;;;;;;5103686;28;20385;-81
2021/07/07 07:54:51;;;;;;;0.40;0.20;;;17.20;99.90;;;;;;5111558;28;20404;-82
2021/07/07 07:57:17;;;;;;;0.40;0.20;;;17.50;99.90;;;;;;5090145;28;20405;-81
2021/07/07 07:59:42;;;;;;;0.40;0.20;;;17.60;99.90;;;;;;5091594;28;20838;-82
2021/07/07 08:02:08;;;;;;;0.40;0.20;;;17.70;99.90;;;;;;5104075;28;20389;-81
2021/07/07 08:04:34;;;;;;;0.40;0.20;;;17.70;99.90;;;;;;5111557;28;20373;-82
2021/07/07 08:06:59;;;;;;;0.40;0.30;;;17.40;99.90;;;;;;5112139;28;20383;-80
2021/07/07 08:09:25;;;;;;;0.40;0.20;;;17.40;99.90;;;;;;5110793;28;20478;-80
2021/07/07 08:11:51;;;;;;;0.40;0.30;;;17.30;99.90;;;;;;5087709;28;20397;-80
2021/07/07 08:14:17;;;;;;;0.40;0.30;;;17.50;99.90;;;;;;5092072;28;20406;-81
2021/07/07 08:16:43;;;;;;;0.40;0.20;;;17.60;99.90;;;;;;5105819;28;20765;-80
2021/07/07 08:19:08;;;;;;;0.40;0.20;;;17.80;99.90;;;;;;5103799;28;20417;-80
2021/07/07 08:21:34;;;;;;;0.40;0.20;;;17.90;99.90;;;;;;5090583;28;20949;-81
2021/07/07 08:24:02;;;;;;;0.40;0.20;;;17.90;99.90;;;;;;5108910;28;20391;-82
2021/07/07 08:26:29;;;;;;;0.40;0.30;;;17.90;99.90;;;;;;5036566;28;1837892;-81
2021/07/07 08:28:57;;;;;;;0.40;0.20;;;18.00;99.90;;;;;;5096203;28;20911;-81
2021/07/07 08:31:26;;;;;;;0.40;0.20;;;18.10;99.90;;;;;;5094084;28;20389;-80
2021/07/07 08:33:54;;;;;;;0.40;0.20;;;18.10;99.90;;;;;;5100347;28;20401;-81
2021/07/07 08:36:22;;;;;;;0.40;0.30;;;18.30;99.90;;;;;;5092384;28;20868;-80
2021/07/07 08:38:49;;;;;;;0.40;0.30;;;18.20;99.90;;;;;;5092723;28;20374;-81
2021/07/07 08:41:15;;;;;;;0.40;0.20;;;18.50;99.90;;;;;;5074386;28;20927;-81
2021/07/07 08:43:44;;;;;;;0.40;0.30;;;18.50;99.90;;;;;;5099327;28;20396;-78
2021/07/07 08:46:09;;;;;;;0.40;0.20;;;18.40;99.90;;;;;;5110509;28;20391;-82
2021/07/07 08:48:35;;;;;;;0.40;0.20;;;18.50;99.90;;;;;;5091669;28;20390;-80
2021/07/07 08:51:03;;;;;;;0.40;0.20;;;18.50;99.90;;;;;;5103823;28;20388;-80
2021/07/07 08:53:30;;;;;;;0.40;0.20;;;18.40;99.90;;;;;;5092069;28;20459;-77
2021/07/07 08:55:57;;;;;;;0.40;0.30;;;18.50;99.90;;;;;;5091039;28;20466;-78
2021/07/07 08:58:23;;;;;;;0.40;0.20;;;18.50;99.90;;;;;;5111748;28;20399;-77
2021/07/07 09:00:52;;;;;;;0.40;0.20;;;18.50;99.90;;;;;;5096964;28;20390;-78
2021/07/07 09:03:18;;;;;;;0.40;0.30;;;18.50;99.90;;;;;;5101738;28;20384;-78
2021/07/07 09:06:03;;;;;;;0.40;0.20;;;18.40;99.90;;;;;;5108705;28;21095;-78
2021/07/07 09:08:32;;;;;;;0.40;0.20;;;18.50;99.90;;;;;;5091463;28;20464;-78
2021/07/07 09:11:29;;;;;;;0.40;0.28;;;18.50;99.90;;;;;;5106365;28;20388;-80
2021/07/07 09:14:15;;;;;;;0.40;0.30;;;18.60;99.90;;;;;;5098458;28;20473;-79
2021/07/07 09:16:59;;;;;;;0.40;0.20;;;18.70;99.90;;;;;;5097270;28;20422;-79
2021/07/07 09:19:28;;;;;;;0.40;0.20;;;18.70;99.90;;;;;;5109077;28;20392;-79
2021/07/07 09:21:59;;;;;;;0.40;0.20;;;18.80;99.90;;;;;;5092008;28;20430;-79
2021/07/07 09:24:25;;;;;;;0.40;0.20;;;18.70;99.90;;;;;;5107133;28;20392;-78
2021/07/07 09:27:07;;;;;;;0.40;0.20;;;18.70;99.90;;;;;;5104304;28;20406;-80
2021/07/07 09:29:42;;;;;;;0.40;0.30;;;18.80;99.90;;;;;;5091461;28;20869;-80
2021/07/07 09:32:28;;;;;;;0.40;0.20;;;18.80;99.90;;;;;;5091659;28;20446;-79
2021/07/07 09:35:02;;;;;;;0.40;0.20;;;18.70;99.90;;;;;;5096563;28;20401;-80
2021/07/07 09:37:38;;;;;;;0.40;0.30;;;18.60;99.90;;;;;;5081454;28;20391;-80
2021/07/07 09:40:07;;;;;;;0.40;0.20;;;18.80;99.90;;;;;;5110801;28;20433;-80
2021/07/07 09:42:34;;;;;;;0.40;0.30;;;18.90;99.90;;;;;;5090601;28;20400;-78
2021/07/07 09:45:01;;;;;;;0.40;0.20;;;18.90;99.90;;;;;;5106197;28;20971;-79
2021/07/07 09:47:28;;;;;;;0.40;0.30;;;19.00;99.90;;;;;;5105082;28;20401;-79
2021/07/07 09:49:55;;;;;;;0.40;0.30;;;19.30;99.90;;;;;;5091649;28;20930;-79
2021/07/07 09:52:25;;;;;;;0.40;0.30;;;19.40;99.90;;;;;;5097896;28;20402;-81
2021/07/07 09:54:51;;;;;;;0.40;0.30;;;19.60;99.90;;;;;;5097792;28;20416;-80
2021/07/07 09:57:18;;;;;;;0.40;0.30;;;19.70;99.90;;;;;;5111663;28;20377;-82
2021/07/07 09:59:44;;;;;;;0.40;0.20;;;19.50;99.90;;;;;;5092674;28;20421;-84
2021/07/07 10:02:10;;;;;;;0.40;0.20;;;19.60;99.90;;;;;;5100328;28;20412;-84
2021/07/07 10:04:42;;;;;;;0.40;0.20;;;19.70;99.90;;;;;;5111165;28;20420;-81
2021/07/07 10:07:08;;;;;;;0.40;0.20;;;19.80;99.90;;;;;;5073247;28;20866;-81
2021/07/07 10:09:37;;;;;;;0.40;0.30;;;19.70;99.90;;;;;;5072416;28;20413;-81
2021/07/07 10:12:03;;;;;;;0.40;0.20;;;19.60;99.90;;;;;;5091240;28;20381;-81
2021/07/07 10:14:29;;;;;;;0.40;0.20;;;19.50;99.90;;;;;;5090702;28;20394;-80
2021/07/07 10:16:55;;;;;;;0.40;0.20;;;19.40;99.90;;;;;;5107856;28;20498;-84
2021/07/07 10:19:21;;;;;;;0.40;0.30;;;19.60;99.90;;;;;;5103135;28;20402;-82
2021/07/07 10:21:48;;;;;;;0.40;0.20;;;20.00;99.90;;;;;;5090840;28;20374;-83
2021/07/07 10:24:18;;;;;;;0.40;0.30;;;20.00;99.90;;;;;;5073169;28;20464;-81
2021/07/07 10:26:45;;;;;;;0.40;0.30;;;19.90;99.90;;;;;;5090461;28;20555;-81
2021/07/07 10:29:12;;;;;;;0.40;0.22;;;19.90;99.90;;;;;;5094791;28;20396;-82
2021/07/07 10:31:48;;;;;;;0.40;0.20;;;20.00;99.90;;;;;;5110479;28;20450;-80
2021/07/07 10:34:15;;;;;;;0.40;0.20;;;20.00;99.90;;;;;;5092364;28;20413;-81
2021/07/07 10:36:42;;;;;;;0.40;0.20;;;19.90;99.90;;;;;;5101687;28;20444;-82
2021/07/07 10:39:10;;;;;;;0.40;0.30;;;20.00;99.90;;;;;;5092388;28;20376;-82
2021/07/07 10:41:43;;;;;;;0.40;0.20;;;19.90;99.90;;;;;;5072123;28;20439;-83
2021/07/07 10:44:40;;;;;;;0.40;0.20;;;20.20;99.90;;;;;;5106905;28;20449;-82
2021/07/07 10:47:13;;;;;;;0.40;0.20;;;20.30;99.90;;;;;;5079004;28;20757;-83
2021/07/07 10:49:53;;;;;;;0.40;0.20;;;20.50;99.90;;;;;;5094563;28;20525;-83
2021/07/07 10:52:34;;;;;;;0.40;0.20;;;20.50;99.90;;;;;;5081542;28;20897;-81
2021/07/07 10:55:03;;;;;;;0.40;0.20;;;20.30;99.90;;;;;;5107853;28;20408;-79
2021/07/07 10:57:38;;;;;;;0.40;0.20;;;20.00;99.90;;;;;;5104855;28;20393;-79
2021/07/07 11:00:21;;;;;;;0.40;0.20;;;20.00;99.90;;;;;;5091796;28;20416;-80
2021/07/07 11:02:48;;;;;;;0.40;0.20;;;20.20;99.90;;;;;;5101207;28;20514;-80
2021/07/07 11:05:24;;;;;;;0.40;0.30;;;20.30;99.90;;;;;;5093488;28;20389;-80
2021/07/07 11:07:50;;;;;;;0.40;0.20;;;20.10;99.90;;;;;;5089459;28;20385;-81
2021/07/07 11:10:21;;;;;;;0.40;0.20;;;20.40;99.90;;;;;;5086679;28;20400;-80
2021/07/07 11:12:54;;;;;;;0.40;0.30;;;20.30;99.90;;;;;;5068928;28;20406;-84
2021/07/07 11:15:27;;;;;;;0.40;0.30;;;20.60;99.90;;;;;;5085401;28;20490;-83
2021/07/07 11:17:58;;;;;;;0.40;0.20;;;20.60;99.90;;;;;;5086756;28;20465;-81
2021/07/07 11:20:25;;;;;;;0.40;0.20;;;20.20;99.90;;;;;;5073306;28;20475;-81
2021/07/07 11:23:06;;;;;;;0.40;0.20;;;20.60;99.90;;;;;;5089587;28;20406;-81
2021/07/07 11:25:34;;;;;;;0.40;0.20;;;20.80;99.90;;;;;;5088349;28;20386;-81
2021/07/07 11:28:01;;;;;;;0.40;0.30;;;21.30;99.90;;;;;;5089801;28;20408;-81
2021/07/07 11:30:28;;;;;;;0.40;0.20;;;21.50;99.90;;;;;;5090612;28;20469;-81
2021/07/07 11:32:57;;;;;;;0.40;0.20;;;21.80;99.90;;;;;;5087662;28;20374;-82
2021/07/07 11:35:34;;;;;;;0.40;0.30;;;22.00;99.90;;;;;;5068344;28;20424;-80
2021/07/07 11:38:02;;;;;;;0.40;0.20;;;22.10;99.90;;;;;;5068970;28;21095;-83
2021/07/07 11:40:32;;;;;;;0.40;0.30;;;21.90;99.90;;;;;;5089145;28;20446;-82
2021/07/07 11:42:58;;;;;;;0.40;0.30;;;21.90;99.90;;;;;;5089873;28;20382;-80
2021/07/07 11:45:48;;;;;;;0.40;0.30;;;21.80;99.90;;;;;;5068512;28;20402;-78
2021/07/07 11:48:25;;;;;;;0.40;0.20;;;22.40;99.90;;;;;;5077916;28;20432;-82
2021/07/07 11:51:00;;;;;;;0.40;0.30;;;23.10;99.90;;;;;;5089033;28;20402;-82
2021/07/07 11:53:39;;;;;;;0.40;0.20;;;23.40;99.90;;;;;;5090310;28;20457;-81
2021/07/07 11:56:08;;;;;;;0.40;0.30;;;23.50;99.90;;;;;;5088494;28;20536;-79
2021/07/07 11:58:45;;;;;;;0.40;0.20;;;23.30;99.90;;;;;;5088977;28;20417;-82
2021/07/07 12:01:24;;;;;;;0.40;0.30;;;22.60;99.90;;;;;;5052336;27;20405;-81
2021/07/07 12:04:00;;;;;;;0.40;0.20;;;22.40;99.90;;;;;;5066423;27;20492;-83
2021/07/07 12:06:33;;;;;;;0.40;0.20;;;23.10;99.90;;;;;;5069283;27;21854;-81
2021/07/07 12:08:59;;;;;;;0.40;0.30;;;23.10;99.90;;;;;;5062805;27;20400;-81
2021/07/07 12:11:25;;;;;;;0.40;0.20;;;23.40;99.90;;;;;;5067171;28;20447;-82
2021/07/07 12:13:52;;;;;;;0.40;0.20;;;24.60;98.70;;;;;;5087445;28;20386;-83
2021/07/07 12:16:21;;;;;;;0.40;0.30;;;24.10;99.90;;;;;;5086429;28;20430;-83
2021/07/07 12:18:49;;;;;;;0.40;0.30;;;24.80;96.60;;;;;;5068162;27;20756;-82
2021/07/07 12:21:27;;;;;;;0.40;0.30;;;24.40;99.20;;;;;;5067469;27;20451;-81
2021/07/07 12:23:58;;;;;;;0.40;0.20;;;24.00;97.00;;;;;;5066635;27;20397;-82
2021/07/07 12:26:33;;;;;;;0.40;0.30;;;23.50;99.90;;;;;;5064900;27;20407;-81
2021/07/07 12:29:00;;;;;;;0.40;0.30;;;23.30;99.90;;;;;;5064994;27;20525;-82
2021/07/07 12:31:27;;;;;;;0.40;0.20;;;23.80;99.90;;;;;;5065360;27;20470;-82
2021/07/07 12:33:54;;;;;;;0.40;0.30;;;23.60;98.50;;;;;;5065092;27;20727;-82
2021/07/07 12:36:30;;;;;;;0.40;0.30;;;24.00;99.80;;;;;;5081778;27;20534;-82
2021/07/07 12:38:57;;;;;;;0.40;0.30;;;24.40;98.80;;;;;;5089255;28;20372;-82
2021/07/07 12:41:37;;;;;;;0.40;0.20;;;24.60;97.90;;;;;;5088490;28;20385;-80
2021/07/07 12:46:33;;;;;;;0.40;0.20;;;24.70;94.30;;;;;;5085462;28;20408;-81
2021/07/07 12:48:58;;;;;;;0.40;0.20;;;24.10;95.20;;;;;;5048305;27;21673;-84
2021/07/07 12:51:29;;;;;;;0.40;0.20;;;23.30;96.30;;;;;;5065149;27;20422;-82
2021/07/07 12:53:56;;;;;;;0.40;0.20;;;22.90;98.30;;;;;;5065667;27;20490;-83
2021/07/07 12:56:23;;;;;;;0.40;0.30;;;23.90;99.70;;;;;;5065419;27;20478;-81